Aeroporto :
LOGIN :

Iscrizione | Disclaimer

   EN    FR    IT 

 










Sommario :    VFR   VFR Marginale   IFR   IFR Intensivo   IFR Molto Intensivo
Visibilità : 
Base nubi : 
>= 8 km
>= 3000ft
5 / 8 km
1000 / 3000 ft
1500m / 5 km
500 / 1000 ft
800 / 1500m
200 / 500 ft
< 800m
< 200 ft
Simboli :   Temporali  Nebbia  Neve Forte  Precipitazioni Forti  Vento > 20 kt
SIGMETs :   Varie  Temporali  Ghiacco  Turbolenza  Onda orograficha  Ceneri Vulcaniche







- Altitudine del aeroporto : 584 ft
- Carte del aeroporto


LFPV - Villacoublay Vélizy

ULTIMO METAR :
  • 220230Z AUTO 24004KT CAVOK 14/08 Q1010 NOSIG

METARs OBSOLETI :
  • 220200Z AUTO 23004KT 200V260 CAVOK 14/07 Q1010 NOSIG
  • 220130Z AUTO 21005KT CAVOK 15/06 Q1010 NOSIG
  • 220100Z AUTO 17005KT CAVOK 15/06 Q1011 NOSIG
  • 220030Z AUTO 16003KT CAVOK 16/06 Q1011 NOSIG
  • 220000Z AUTO 14001KT CAVOK 14/05 Q1011 NOSIG

TAF TAF LFPV
Valido dal 21 a 21 ore il 22 a 21 ore UTC


212000Z 2121/2221 VRB03KT CAVOK
BECMG 2210/2212 09006KT
Nessun NOTAM noto per questo aeroporto.



MetMap, La meteo Aeronautica in un colpo d'occhio ! - Copyright ORBIFLY Dicembre 2007 - Disclaimer

ORBIFLY MET'MAP TEAM :

Programmazione e sviluppo : Alexandra Zaïnal
Concezione e sviluppo : Baudouin d'Aumeries
Co-Programmazione e sviluppo : Marc-Olivier Méhu
Supporto tecnico e logistico : Manuel Goepfert
Aiuto per la traduzione : Arnaldo La Scala

Contatto : metmap@orbifly.com




FONTI E CREDITI :

   NOAA